Metar z pełnej godziny Komunikat METAR ze strony awiacja.imgw.pl Metar G00 EPLL METAR EPLL 220600Z 26016KT 5000 -DZ BR OVC004 00/M01 Q1025 =